sensor_id;sensor_type;location;lat;lon;timestamp;P1;durP1;ratioP1;P2;durP2;ratioP2
62543;SDS011;48597;49.030;1.822;2022-08-01T00:00:22;0.50;;;0.50;;
62543;SDS011;48597;49.030;1.822;2022-08-01T00:02:47;0.52;;;0.52;;
62543;SDS011;48597;49.030;1.822;2022-08-01T00:05:13;0.60;;;0.60;;
62543;SDS011;48597;49.030;1.822;2022-08-01T00:07:38;0.52;;;0.52;;
62543;SDS011;48597;49.030;1.822;2022-08-01T00:10:05;1.25;;;0.60;;
62543;SDS011;48597;49.030;1.822;2022-08-01T00:12:33;0.98;;;0.50;;
62543;SDS011;48597;49.030;1.822;2022-08-01T00:14:58;0.50;;;0.50;;
62543;SDS011;48597;49.030;1.822;2022-08-01T00:17:24;0.50;;;0.50;;
62543;SDS011;48597;49.030;1.822;2022-08-01T00:19:49;0.60;;;0.60;;
62543;SDS011;48597;49.030;1.822;2022-08-01T00:22:15;0.50;;;0.50;;
62543;SDS011;48597;49.030;1.822;2022-08-01T00:24:40;0.60;;;0.60;;
62543;SDS011;48597;49.030;1.822;2022-08-01T00:27:06;0.60;;;0.60;;
62543;SDS011;48597;49.030;1.822;2022-08-01T00:29:31;0.80;;;0.80;;
62543;SDS011;48597;49.030;1.822;2022-08-01T00:31:56;0.70;;;0.70;;
62543;SDS011;48597;49.030;1.822;2022-08-01T00:34:22;0.43;;;0.43;;
62543;SDS011;48597;49.030;1.822;2022-08-01T00:36:47;0.60;;;0.60;;
62543;SDS011;48597;49.030;1.822;2022-08-01T00:39:12;0.60;;;0.60;;
62543;SDS011;48597;49.030;1.822;2022-08-01T00:41:38;0.70;;;0.60;;
62543;SDS011;48597;49.030;1.822;2022-08-01T00:44:04;0.50;;;0.50;;
62543;SDS011;48597;49.030;1.822;2022-08-01T00:46:30;0.75;;;0.60;;
62543;SDS011;48597;49.030;1.822;2022-08-01T00:48:56;0.75;;;0.70;;
62543;SDS011;48597;49.030;1.822;2022-08-01T00:51:22;0.80;;;0.63;;
62543;SDS011;48597;49.030;1.822;2022-08-01T00:53:48;0.60;;;0.60;;
62543;SDS011;48597;49.030;1.822;2022-08-01T00:56:15;0.70;;;0.70;;
62543;SDS011;48597;49.030;1.822;2022-08-01T00:58:41;0.60;;;0.60;;
62543;SDS011;48597;49.030;1.822;2022-08-01T01:01:07;0.70;;;0.70;;
62543;SDS011;48597;49.030;1.822;2022-08-01T01:03:33;0.50;;;0.50;;
62543;SDS011;48597;49.030;1.822;2022-08-01T01:06:13;0.60;;;0.60;;
62543;SDS011;48597;49.030;1.822;2022-08-01T01:09:34;0.50;;;0.50;;
62543;SDS011;48597;49.030;1.822;2022-08-01T01:11:57;0.55;;;0.55;;
62543;SDS011;48597;49.030;1.822;2022-08-01T01:17:00;0.60;;;0.60;;
62543;SDS011;48597;49.030;1.822;2022-08-01T01:19:29;0.60;;;0.60;;
62543;SDS011;48597;49.030;1.822;2022-08-01T01:22:00;0.50;;;0.50;;
62543;SDS011;48597;49.030;1.822;2022-08-01T01:27:24;0.60;;;0.60;;
62543;SDS011;48597;49.030;1.822;2022-08-01T01:30:07;0.40;;;0.40;;
62543;SDS011;48597;49.030;1.822;2022-08-01T01:32:35;0.50;;;0.50;;
62543;SDS011;48597;49.030;1.822;2022-08-01T01:35:08;0.43;;;0.43;;
62543;SDS011;48597;49.030;1.822;2022-08-01T01:37:37;0.75;;;0.75;;
62543;SDS011;48597;49.030;1.822;2022-08-01T01:40:05;0.55;;;0.50;;
62543;SDS011;48597;49.030;1.822;2022-08-01T01:42:32;1.08;;;0.60;;
62543;SDS011;48597;49.030;1.822;2022-08-01T01:44:59;0.68;;;0.68;;
62543;SDS011;48597;49.030;1.822;2022-08-01T01:47:26;0.57;;;0.57;;
62543;SDS011;48597;49.030;1.822;2022-08-01T01:49:52;0.65;;;0.60;;
62543;SDS011;48597;49.030;1.822;2022-08-01T01:52:20;0.47;;;0.47;;
62543;SDS011;48597;49.030;1.822;2022-08-01T01:54:47;0.60;;;0.60;;
62543;SDS011;48597;49.030;1.822;2022-08-01T01:57:15;0.70;;;0.70;;
62543;SDS011;48597;49.030;1.822;2022-08-01T01:59:42;0.60;;;0.60;;
62543;SDS011;48597;49.030;1.822;2022-08-01T02:02:09;0.60;;;0.60;;
62543;SDS011;48597;49.030;1.822;2022-08-01T02:04:36;0.73;;;0.60;;
62543;SDS011;48597;49.030;1.822;2022-08-01T02:07:05;0.75;;;0.75;;
62543;SDS011;48597;49.030;1.822;2022-08-01T02:09:33;0.60;;;0.60;;
62543;SDS011;48597;49.030;1.822;2022-08-01T02:12:02;0.60;;;0.60;;
62543;SDS011;48597;49.030;1.822;2022-08-01T02:14:30;0.60;;;0.60;;
62543;SDS011;48597;49.030;1.822;2022-08-01T02:16:58;0.60;;;0.60;;
62543;SDS011;48597;49.030;1.822;2022-08-01T02:19:25;0.50;;;0.50;;
62543;SDS011;48597;49.030;1.822;2022-08-01T02:21:51;0.65;;;0.60;;
62543;SDS011;48597;49.030;1.822;2022-08-01T02:27:15;0.90;;;0.60;;
62543;SDS011;48597;49.030;1.822;2022-08-01T02:32:33;1.00;;;0.52;;
62543;SDS011;48597;49.030;1.822;2022-08-01T02:35:03;0.50;;;0.50;;
62543;SDS011;48597;49.030;1.822;2022-08-01T02:37:33;0.55;;;0.55;;
62543;SDS011;48597;49.030;1.822;2022-08-01T02:40:01;0.50;;;0.50;;
62543;SDS011;48597;49.030;1.822;2022-08-01T02:42:27;0.60;;;0.60;;
62543;SDS011;48597;49.030;1.822;2022-08-01T02:44:55;0.68;;;0.68;;
62543;SDS011;48597;49.030;1.822;2022-08-01T02:47:22;0.70;;;0.70;;
62543;SDS011;48597;49.030;1.822;2022-08-01T02:49:49;0.60;;;0.60;;
62543;SDS011;48597;49.030;1.822;2022-08-01T02:52:17;0.60;;;0.60;;
62543;SDS011;48597;49.030;1.822;2022-08-01T02:54:45;0.60;;;0.60;;
62543;SDS011;48597;49.030;1.822;2022-08-01T02:57:12;0.50;;;0.50;;
62543;SDS011;48597;49.030;1.822;2022-08-01T02:59:39;0.40;;;0.40;;
62543;SDS011;48597;49.030;1.822;2022-08-01T03:02:06;0.65;;;0.65;;
62543;SDS011;48597;49.030;1.822;2022-08-01T03:04:33;0.50;;;0.50;;
62543;SDS011;48597;49.030;1.822;2022-08-01T03:07:00;0.60;;;0.60;;
62543;SDS011;48597;49.030;1.822;2022-08-01T03:09:28;0.85;;;0.60;;
62543;SDS011;48597;49.030;1.822;2022-08-01T03:11:59;0.82;;;0.82;;
62543;SDS011;48597;49.030;1.822;2022-08-01T03:14:27;0.60;;;0.60;;
62543;SDS011;48597;49.030;1.822;2022-08-01T03:16:55;0.50;;;0.50;;
62543;SDS011;48597;49.030;1.822;2022-08-01T03:19:25;0.60;;;0.60;;
62543;SDS011;48597;49.030;1.822;2022-08-01T03:21:52;0.93;;;0.50;;
62543;SDS011;48597;49.030;1.822;2022-08-01T03:24:20;0.50;;;0.50;;
62543;SDS011;48597;49.030;1.822;2022-08-01T03:26:48;0.60;;;0.60;;
62543;SDS011;48597;49.030;1.822;2022-08-01T03:29:17;0.60;;;0.60;;
62543;SDS011;48597;49.030;1.822;2022-08-01T03:31:46;0.55;;;0.45;;
62543;SDS011;48597;49.030;1.822;2022-08-01T03:34:13;0.65;;;0.60;;
62543;SDS011;48597;49.030;1.822;2022-08-01T03:39:28;0.52;;;0.52;;
62543;SDS011;48597;49.030;1.822;2022-08-01T03:42:00;0.63;;;0.63;;
62543;SDS011;48597;49.030;1.822;2022-08-01T03:44:31;0.88;;;0.50;;
62543;SDS011;48597;49.030;1.822;2022-08-01T03:47:00;0.77;;;0.70;;
62543;SDS011;48597;49.030;1.822;2022-08-01T03:49:30;0.52;;;0.52;;
62543;SDS011;48597;49.030;1.822;2022-08-01T03:51:57;0.55;;;0.55;;
62543;SDS011;48597;49.030;1.822;2022-08-01T03:54:28;0.55;;;0.50;;
62543;SDS011;48597;49.030;1.822;2022-08-01T03:56:58;0.60;;;0.60;;
62543;SDS011;48597;49.030;1.822;2022-08-01T03:59:25;0.93;;;0.60;;
62543;SDS011;48597;49.030;1.822;2022-08-01T04:01:51;0.73;;;0.73;;
62543;SDS011;48597;49.030;1.822;2022-08-01T04:04:18;0.60;;;0.60;;
62543;SDS011;48597;49.030;1.822;2022-08-01T04:06:44;0.60;;;0.50;;
62543;SDS011;48597;49.030;1.822;2022-08-01T04:09:10;0.60;;;0.60;;
62543;SDS011;48597;49.030;1.822;2022-08-01T04:11:36;0.50;;;0.50;;
62543;SDS011;48597;49.030;1.822;2022-08-01T04:14:02;0.50;;;0.50;;
62543;SDS011;48597;49.030;1.822;2022-08-01T04:16:28;0.40;;;0.40;;
62543;SDS011;48597;49.030;1.822;2022-08-01T04:18:53;0.55;;;0.55;;
62543;SDS011;48597;49.030;1.822;2022-08-01T04:21:21;0.70;;;0.70;;
62543;SDS011;48597;49.030;1.822;2022-08-01T04:23:49;0.52;;;0.50;;
62543;SDS011;48597;49.030;1.822;2022-08-01T04:26:17;0.50;;;0.50;;
62543;SDS011;48597;49.030;1.822;2022-08-01T04:28:44;0.65;;;0.60;;
62543;SDS011;48597;49.030;1.822;2022-08-01T04:31:12;0.60;;;0.60;;
62543;SDS011;48597;49.030;1.822;2022-08-01T04:33:42;0.60;;;0.60;;
62543;SDS011;48597;49.030;1.822;2022-08-01T04:36:10;0.60;;;0.60;;
62543;SDS011;48597;49.030;1.822;2022-08-01T04:38:38;0.70;;;0.70;;
62543;SDS011;48597;49.030;1.822;2022-08-01T04:41:06;0.40;;;0.40;;
62543;SDS011;48597;49.030;1.822;2022-08-01T04:43:36;0.60;;;0.60;;
62543;SDS011;48597;49.030;1.822;2022-08-01T04:46:03;0.50;;;0.50;;
62543;SDS011;48597;49.030;1.822;2022-08-01T04:48:28;0.50;;;0.50;;
62543;SDS011;48597;49.030;1.822;2022-08-01T04:50:56;0.60;;;0.60;;
62543;SDS011;48597;49.030;1.822;2022-08-01T04:53:22;1.25;;;0.60;;
62543;SDS011;48597;49.030;1.822;2022-08-01T04:55:47;0.50;;;0.50;;
62543;SDS011;48597;49.030;1.822;2022-08-01T04:58:16;0.70;;;0.70;;
62543;SDS011;48597;49.030;1.822;2022-08-01T05:00:41;0.50;;;0.50;;
62543;SDS011;48597;49.030;1.822;2022-08-01T05:03:06;0.63;;;0.63;;
62543;SDS011;48597;49.030;1.822;2022-08-01T05:05:32;0.60;;;0.60;;
62543;SDS011;48597;49.030;1.822;2022-08-01T05:07:58;0.60;;;0.60;;
62543;SDS011;48597;49.030;1.822;2022-08-01T05:10:24;0.80;;;0.60;;
62543;SDS011;48597;49.030;1.822;2022-08-01T05:12:50;0.60;;;0.60;;
62543;SDS011;48597;49.030;1.822;2022-08-01T05:15:16;0.60;;;0.60;;
62543;SDS011;48597;49.030;1.822;2022-08-01T05:17:41;0.50;;;0.50;;
62543;SDS011;48597;49.030;1.822;2022-08-01T05:20:10;0.52;;;0.52;;
62543;SDS011;48597;49.030;1.822;2022-08-01T05:22:36;0.55;;;0.55;;
62543;SDS011;48597;49.030;1.822;2022-08-01T05:25:02;0.55;;;0.55;;
62543;SDS011;48597;49.030;1.822;2022-08-01T05:27:30;0.70;;;0.70;;
62543;SDS011;48597;49.030;1.822;2022-08-01T05:29:55;0.73;;;0.73;;
62543;SDS011;48597;49.030;1.822;2022-08-01T05:32:21;0.70;;;0.70;;
62543;SDS011;48597;49.030;1.822;2022-08-01T05:34:46;0.70;;;0.70;;
62543;SDS011;48597;49.030;1.822;2022-08-01T05:37:11;0.57;;;0.57;;
62543;SDS011;48597;49.030;1.822;2022-08-01T05:39:37;1.33;;;0.80;;
62543;SDS011;48597;49.030;1.822;2022-08-01T05:42:02;0.60;;;0.60;;
62543;SDS011;48597;49.030;1.822;2022-08-01T05:44:27;0.77;;;0.77;;
62543;SDS011;48597;49.030;1.822;2022-08-01T05:46:53;1.25;;;0.70;;
62543;SDS011;48597;49.030;1.822;2022-08-01T05:49:18;0.80;;;0.80;;
62543;SDS011;48597;49.030;1.822;2022-08-01T05:51:44;0.82;;;0.80;;
62543;SDS011;48597;49.030;1.822;2022-08-01T05:54:09;0.80;;;0.80;;
62543;SDS011;48597;49.030;1.822;2022-08-01T05:56:34;0.85;;;0.85;;
62543;SDS011;48597;49.030;1.822;2022-08-01T05:59:00;0.80;;;0.80;;
62543;SDS011;48597;49.030;1.822;2022-08-01T06:01:25;0.77;;;0.77;;
62543;SDS011;48597;49.030;1.822;2022-08-01T06:03:51;1.00;;;0.90;;
62543;SDS011;48597;49.030;1.822;2022-08-01T06:06:19;1.05;;;1.00;;
62543;SDS011;48597;49.030;1.822;2022-08-01T06:08:44;0.80;;;0.80;;
62543;SDS011;48597;49.030;1.822;2022-08-01T06:11:10;1.08;;;1.08;;
62543;SDS011;48597;49.030;1.822;2022-08-01T06:13:35;1.20;;;1.10;;
62543;SDS011;48597;49.030;1.822;2022-08-01T06:16:00;1.00;;;1.00;;
62543;SDS011;48597;49.030;1.822;2022-08-01T06:18:26;1.45;;;1.20;;
62543;SDS011;48597;49.030;1.822;2022-08-01T06:20:52;1.20;;;1.10;;
62543;SDS011;48597;49.030;1.822;2022-08-01T06:23:17;1.00;;;1.00;;
62543;SDS011;48597;49.030;1.822;2022-08-01T06:25:44;1.17;;;1.08;;
62543;SDS011;48597;49.030;1.822;2022-08-01T06:28:10;1.30;;;1.20;;
62543;SDS011;48597;49.030;1.822;2022-08-01T06:30:35;1.30;;;1.20;;
62543;SDS011;48597;49.030;1.822;2022-08-01T06:33:01;1.40;;;1.30;;
62543;SDS011;48597;49.030;1.822;2022-08-01T06:35:26;1.00;;;1.00;;
62543;SDS011;48597;49.030;1.822;2022-08-01T06:37:53;1.20;;;1.10;;
62543;SDS011;48597;49.030;1.822;2022-08-01T06:40:18;1.25;;;1.15;;
62543;SDS011;48597;49.030;1.822;2022-08-01T06:42:44;0.95;;;0.95;;
62543;SDS011;48597;49.030;1.822;2022-08-01T06:45:11;1.17;;;1.08;;
62543;SDS011;48597;49.030;1.822;2022-08-01T06:47:37;1.23;;;1.13;;
62543;SDS011;48597;49.030;1.822;2022-08-01T06:50:06;1.25;;;1.10;;
62543;SDS011;48597;49.030;1.822;2022-08-01T06:52:33;1.13;;;1.10;;
62543;SDS011;48597;49.030;1.822;2022-08-01T06:54:59;1.25;;;1.15;;
62543;SDS011;48597;49.030;1.822;2022-08-01T06:57:24;1.20;;;1.10;;
62543;SDS011;48597;49.030;1.822;2022-08-01T06:59:50;1.30;;;1.20;;
62543;SDS011;48597;49.030;1.822;2022-08-01T07:02:16;1.15;;;1.15;;
62543;SDS011;48597;49.030;1.822;2022-08-01T07:04:41;1.45;;;1.20;;
62543;SDS011;48597;49.030;1.822;2022-08-01T07:07:06;1.40;;;1.30;;
62543;SDS011;48597;49.030;1.822;2022-08-01T07:09:32;1.38;;;1.20;;
62543;SDS011;48597;49.030;1.822;2022-08-01T07:11:57;1.48;;;1.38;;
62543;SDS011;48597;49.030;1.822;2022-08-01T07:14:22;1.10;;;1.10;;
62543;SDS011;48597;49.030;1.822;2022-08-01T07:16:48;1.35;;;1.20;;
62543;SDS011;48597;49.030;1.822;2022-08-01T07:19:14;1.50;;;1.40;;
62543;SDS011;48597;49.030;1.822;2022-08-01T07:21:40;1.17;;;1.10;;
62543;SDS011;48597;49.030;1.822;2022-08-01T07:24:06;1.10;;;1.00;;
62543;SDS011;48597;49.030;1.822;2022-08-01T07:26:32;1.30;;;1.20;;
62543;SDS011;48597;49.030;1.822;2022-08-01T07:28:58;1.30;;;1.20;;
62543;SDS011;48597;49.030;1.822;2022-08-01T07:31:24;1.27;;;1.17;;
62543;SDS011;48597;49.030;1.822;2022-08-01T07:33:50;1.40;;;1.30;;
62543;SDS011;48597;49.030;1.822;2022-08-01T07:36:15;1.30;;;1.20;;
62543;SDS011;48597;49.030;1.822;2022-08-01T07:38:41;1.33;;;1.23;;
62543;SDS011;48597;49.030;1.822;2022-08-01T07:41:07;1.05;;;1.00;;
62543;SDS011;48597;49.030;1.822;2022-08-01T07:43:32;1.33;;;1.23;;
62543;SDS011;48597;49.030;1.822;2022-08-01T07:45:57;1.30;;;1.20;;
62543;SDS011;48597;49.030;1.822;2022-08-01T07:48:23;1.10;;;1.00;;
62543;SDS011;48597;49.030;1.822;2022-08-01T07:50:50;1.33;;;1.23;;
62543;SDS011;48597;49.030;1.822;2022-08-01T07:53:15;1.23;;;1.17;;
62543;SDS011;48597;49.030;1.822;2022-08-01T07:55:41;1.30;;;1.20;;
62543;SDS011;48597;49.030;1.822;2022-08-01T07:58:07;1.40;;;1.30;;
62543;SDS011;48597;49.030;1.822;2022-08-01T08:00:32;1.23;;;1.13;;
62543;SDS011;48597;49.030;1.822;2022-08-01T08:02:58;1.30;;;1.20;;
62543;SDS011;48597;49.030;1.822;2022-08-01T08:05:24;2.20;;;1.23;;
62543;SDS011;48597;49.030;1.822;2022-08-01T08:07:52;1.40;;;1.25;;
62543;SDS011;48597;49.030;1.822;2022-08-01T08:10:18;1.30;;;1.20;;
62543;SDS011;48597;49.030;1.822;2022-08-01T08:12:43;1.48;;;1.38;;
62543;SDS011;48597;49.030;1.822;2022-08-01T08:15:11;1.50;;;1.40;;
62543;SDS011;48597;49.030;1.822;2022-08-01T08:17:36;1.70;;;1.50;;
62543;SDS011;48597;49.030;1.822;2022-08-01T08:20:03;1.52;;;1.42;;
62543;SDS011;48597;49.030;1.822;2022-08-01T08:22:31;1.85;;;1.70;;
62543;SDS011;48597;49.030;1.822;2022-08-01T08:24:57;1.80;;;1.70;;
62543;SDS011;48597;49.030;1.822;2022-08-01T08:27:22;1.90;;;1.80;;
62543;SDS011;48597;49.030;1.822;2022-08-01T08:29:48;2.28;;;1.88;;
62543;SDS011;48597;49.030;1.822;2022-08-01T08:32:13;2.30;;;1.90;;
62543;SDS011;48597;49.030;1.822;2022-08-01T08:34:38;3.05;;;1.90;;
62543;SDS011;48597;49.030;1.822;2022-08-01T08:37:05;2.85;;;2.00;;
62543;SDS011;48597;49.030;1.822;2022-08-01T08:39:30;2.13;;;1.92;;
62543;SDS011;48597;49.030;1.822;2022-08-01T08:41:57;2.70;;;1.90;;
62543;SDS011;48597;49.030;1.822;2022-08-01T08:44:24;3.78;;;1.90;;
62543;SDS011;48597;49.030;1.822;2022-08-01T08:46:50;2.00;;;1.80;;
62543;SDS011;48597;49.030;1.822;2022-08-01T08:49:20;2.80;;;1.80;;
62543;SDS011;48597;49.030;1.822;2022-08-01T08:51:49;2.97;;;2.10;;
62543;SDS011;48597;49.030;1.822;2022-08-01T08:54:15;2.67;;;2.00;;
62543;SDS011;48597;49.030;1.822;2022-08-01T08:56:42;2.92;;;1.85;;
62543;SDS011;48597;49.030;1.822;2022-08-01T08:59:10;2.00;;;1.77;;
62543;SDS011;48597;49.030;1.822;2022-08-01T09:01:38;1.95;;;1.85;;
62543;SDS011;48597;49.030;1.822;2022-08-01T09:04:03;2.47;;;1.90;;
62543;SDS011;48597;49.030;1.822;2022-08-01T09:06:29;3.10;;;1.80;;
62543;SDS011;48597;49.030;1.822;2022-08-01T09:08:56;2.67;;;2.20;;
62543;SDS011;48597;49.030;1.822;2022-08-01T09:11:22;2.40;;;1.75;;
62543;SDS011;48597;49.030;1.822;2022-08-01T09:14:01;2.92;;;2.10;;
62543;SDS011;48597;49.030;1.822;2022-08-01T09:16:26;2.05;;;1.83;;
62543;SDS011;48597;49.030;1.822;2022-08-01T09:18:51;2.40;;;2.00;;
62543;SDS011;48597;49.030;1.822;2022-08-01T09:21:18;3.63;;;2.08;;
62543;SDS011;48597;49.030;1.822;2022-08-01T09:26:19;2.50;;;1.90;;
62543;SDS011;48597;49.030;1.822;2022-08-01T09:29:06;2.67;;;2.28;;
62543;SDS011;48597;49.030;1.822;2022-08-01T09:31:43;3.08;;;1.90;;
62543;SDS011;48597;49.030;1.822;2022-08-01T09:34:09;2.30;;;2.10;;
62543;SDS011;48597;49.030;1.822;2022-08-01T09:36:48;2.30;;;2.10;;
62543;SDS011;48597;49.030;1.822;2022-08-01T09:39:16;2.58;;;2.22;;
62543;SDS011;48597;49.030;1.822;2022-08-01T09:41:43;2.60;;;2.40;;
62543;SDS011;48597;49.030;1.822;2022-08-01T09:44:09;2.63;;;2.13;;
62543;SDS011;48597;49.030;1.822;2022-08-01T09:46:34;2.58;;;2.08;;
62543;SDS011;48597;49.030;1.822;2022-08-01T09:49:05;2.25;;;2.05;;
62543;SDS011;48597;49.030;1.822;2022-08-01T09:51:38;2.40;;;2.10;;
62543;SDS011;48597;49.030;1.822;2022-08-01T09:54:04;2.63;;;2.13;;
62543;SDS011;48597;49.030;1.822;2022-08-01T09:56:41;2.50;;;2.15;;
62543;SDS011;48597;49.030;1.822;2022-08-01T09:59:07;2.80;;;2.30;;
62543;SDS011;48597;49.030;1.822;2022-08-01T10:04:11;2.67;;;2.40;;
62543;SDS011;48597;49.030;1.822;2022-08-01T10:06:39;2.83;;;2.63;;
62543;SDS011;48597;49.030;1.822;2022-08-01T10:09:07;3.47;;;2.75;;
62543;SDS011;48597;49.030;1.822;2022-08-01T10:11:33;2.60;;;2.40;;
62543;SDS011;48597;49.030;1.822;2022-08-01T10:14:02;2.50;;;2.30;;
62543;SDS011;48597;49.030;1.822;2022-08-01T10:16:27;3.10;;;2.80;;
62543;SDS011;48597;49.030;1.822;2022-08-01T10:18:54;3.33;;;2.38;;
62543;SDS011;48597;49.030;1.822;2022-08-01T10:21:21;2.78;;;2.50;;
62543;SDS011;48597;49.030;1.822;2022-08-01T10:23:50;3.30;;;2.67;;
62543;SDS011;48597;49.030;1.822;2022-08-01T10:26:18;2.92;;;2.63;;
62543;SDS011;48597;49.030;1.822;2022-08-01T10:28:44;3.25;;;3.03;;
62543;SDS011;48597;49.030;1.822;2022-08-01T10:31:13;2.92;;;2.72;;
62543;SDS011;48597;49.030;1.822;2022-08-01T10:33:39;3.30;;;2.90;;
62543;SDS011;48597;49.030;1.822;2022-08-01T10:36:06;3.25;;;2.90;;
62543;SDS011;48597;49.030;1.822;2022-08-01T10:38:32;3.05;;;2.75;;
62543;SDS011;48597;49.030;1.822;2022-08-01T10:40:59;3.20;;;2.90;;
62543;SDS011;48597;49.030;1.822;2022-08-01T10:43:27;3.05;;;2.72;;
62543;SDS011;48597;49.030;1.822;2022-08-01T10:45:52;2.92;;;2.65;;
62543;SDS011;48597;49.030;1.822;2022-08-01T10:51:05;2.63;;;2.42;;
62543;SDS011;48597;49.030;1.822;2022-08-01T10:53:31;3.38;;;3.08;;
62543;SDS011;48597;49.030;1.822;2022-08-01T10:56:04;2.60;;;2.40;;
62543;SDS011;48597;49.030;1.822;2022-08-01T10:58:36;2.65;;;2.45;;
62543;SDS011;48597;49.030;1.822;2022-08-01T11:03:45;3.28;;;2.30;;
62543;SDS011;48597;49.030;1.822;2022-08-01T11:06:41;2.60;;;2.40;;
62543;SDS011;48597;49.030;1.822;2022-08-01T11:14:22;2.60;;;2.40;;
62543;SDS011;48597;49.030;1.822;2022-08-01T11:16:47;2.42;;;2.22;;
62543;SDS011;48597;49.030;1.822;2022-08-01T11:19:12;3.55;;;2.47;;
62543;SDS011;48597;49.030;1.822;2022-08-01T11:27:16;2.38;;;2.17;;
62543;SDS011;48597;49.030;1.822;2022-08-01T11:32:38;2.60;;;2.40;;
62543;SDS011;48597;49.030;1.822;2022-08-01T11:35:14;3.55;;;2.58;;
62543;SDS011;48597;49.030;1.822;2022-08-01T11:37:39;3.78;;;2.60;;
62543;SDS011;48597;49.030;1.822;2022-08-01T11:40:14;2.90;;;2.60;;
62543;SDS011;48597;49.030;1.822;2022-08-01T11:42:41;2.67;;;2.30;;
62543;SDS011;48597;49.030;1.822;2022-08-01T11:45:06;2.42;;;2.22;;
62543;SDS011;48597;49.030;1.822;2022-08-01T11:47:50;2.50;;;2.30;;
62543;SDS011;48597;49.030;1.822;2022-08-01T11:53:04;2.47;;;2.28;;
62543;SDS011;48597;49.030;1.822;2022-08-01T11:55:31;2.70;;;2.28;;
62543;SDS011;48597;49.030;1.822;2022-08-01T11:58:00;2.30;;;2.10;;
62543;SDS011;48597;49.030;1.822;2022-08-01T12:00:31;3.08;;;2.30;;
62543;SDS011;48597;49.030;1.822;2022-08-01T12:02:57;2.47;;;1.92;;
62543;SDS011;48597;49.030;1.822;2022-08-01T12:05:24;2.08;;;1.98;;
62543;SDS011;48597;49.030;1.822;2022-08-01T12:07:50;2.17;;;1.98;;
62543;SDS011;48597;49.030;1.822;2022-08-01T12:10:17;3.08;;;2.20;;
62543;SDS011;48597;49.030;1.822;2022-08-01T12:12:48;1.90;;;1.80;;
62543;SDS011;48597;49.030;1.822;2022-08-01T12:15:16;2.45;;;2.00;;
62543;SDS011;48597;49.030;1.822;2022-08-01T12:17:44;2.28;;;2.10;;
62543;SDS011;48597;49.030;1.822;2022-08-01T12:20:12;2.35;;;2.15;;
62543;SDS011;48597;49.030;1.822;2022-08-01T12:22:39;2.60;;;2.00;;
62543;SDS011;48597;49.030;1.822;2022-08-01T12:27:32;2.22;;;1.90;;
62543;SDS011;48597;49.030;1.822;2022-08-01T12:29:58;1.90;;;1.80;;
62543;SDS011;48597;49.030;1.822;2022-08-01T12:32:34;2.10;;;1.90;;
62543;SDS011;48597;49.030;1.822;2022-08-01T12:35:44;2.38;;;2.17;;
62543;SDS011;48597;49.030;1.822;2022-08-01T12:38:07;2.05;;;1.85;;
62543;SDS011;48597;49.030;1.822;2022-08-01T12:40:40;1.95;;;1.85;;
62543;SDS011;48597;49.030;1.822;2022-08-01T12:43:08;2.10;;;1.90;;
62543;SDS011;48597;49.030;1.822;2022-08-01T12:45:37;2.40;;;1.88;;
62543;SDS011;48597;49.030;1.822;2022-08-01T12:48:12;2.17;;;1.98;;
62543;SDS011;48597;49.030;1.822;2022-08-01T12:50:42;2.00;;;1.80;;
62543;SDS011;48597;49.030;1.822;2022-08-01T12:53:10;3.85;;;1.85;;
62543;SDS011;48597;49.030;1.822;2022-08-01T12:55:45;2.30;;;2.00;;
62543;SDS011;48597;49.030;1.822;2022-08-01T12:58:13;2.22;;;2.00;;
62543;SDS011;48597;49.030;1.822;2022-08-01T13:00:40;2.35;;;1.90;;
62543;SDS011;48597;49.030;1.822;2022-08-01T13:03:09;2.15;;;1.90;;
62543;SDS011;48597;49.030;1.822;2022-08-01T13:05:49;3.28;;;1.90;;
62543;SDS011;48597;49.030;1.822;2022-08-01T13:08:18;3.53;;;2.00;;
62543;SDS011;48597;49.030;1.822;2022-08-01T13:10:44;3.15;;;1.80;;
62543;SDS011;48597;49.030;1.822;2022-08-01T13:13:10;2.13;;;1.70;;
62543;SDS011;48597;49.030;1.822;2022-08-01T13:15:37;1.88;;;1.70;;
62543;SDS011;48597;49.030;1.822;2022-08-01T13:23:35;2.40;;;1.85;;
62543;SDS011;48597;49.030;1.822;2022-08-01T13:26:00;4.85;;;2.00;;
62543;SDS011;48597;49.030;1.822;2022-08-01T13:28:26;2.30;;;2.10;;
62543;SDS011;48597;49.030;1.822;2022-08-01T13:30:56;2.10;;;1.90;;
62543;SDS011;48597;49.030;1.822;2022-08-01T13:33:22;3.25;;;1.80;;
62543;SDS011;48597;49.030;1.822;2022-08-01T13:35:52;3.55;;;2.30;;
62543;SDS011;48597;49.030;1.822;2022-08-01T13:38:19;3.15;;;1.92;;
62543;SDS011;48597;49.030;1.822;2022-08-01T13:40:44;2.58;;;1.80;;
62543;SDS011;48597;49.030;1.822;2022-08-01T13:43:10;3.30;;;2.08;;
62543;SDS011;48597;49.030;1.822;2022-08-01T13:45:36;1.98;;;1.70;;
62543;SDS011;48597;49.030;1.822;2022-08-01T13:48:01;2.85;;;1.90;;
62543;SDS011;48597;49.030;1.822;2022-08-01T13:50:27;3.97;;;2.00;;
62543;SDS011;48597;49.030;1.822;2022-08-01T13:52:52;4.80;;;2.00;;
62543;SDS011;48597;49.030;1.822;2022-08-01T13:55:18;2.35;;;1.80;;
62543;SDS011;48597;49.030;1.822;2022-08-01T13:57:43;2.88;;;1.90;;
62543;SDS011;48597;49.030;1.822;2022-08-01T14:00:09;2.17;;;1.70;;
62543;SDS011;48597;49.030;1.822;2022-08-01T14:02:35;2.22;;;1.58;;
62543;SDS011;48597;49.030;1.822;2022-08-01T14:05:00;3.40;;;1.98;;
62543;SDS011;48597;49.030;1.822;2022-08-01T14:07:26;1.95;;;1.60;;
62543;SDS011;48597;49.030;1.822;2022-08-01T14:09:52;2.63;;;1.90;;
62543;SDS011;48597;49.030;1.822;2022-08-01T14:12:17;1.83;;;1.58;;
62543;SDS011;48597;49.030;1.822;2022-08-01T14:14:43;1.73;;;1.63;;
62543;SDS011;48597;49.030;1.822;2022-08-01T14:17:08;2.08;;;1.90;;
62543;SDS011;48597;49.030;1.822;2022-08-01T14:19:33;2.40;;;1.60;;
62543;SDS011;48597;49.030;1.822;2022-08-01T14:21:59;2.85;;;2.00;;
62543;SDS011;48597;49.030;1.822;2022-08-01T14:24:24;2.97;;;1.80;;
62543;SDS011;48597;49.030;1.822;2022-08-01T14:26:51;3.00;;;2.10;;
62543;SDS011;48597;49.030;1.822;2022-08-01T14:29:16;2.97;;;1.90;;
62543;SDS011;48597;49.030;1.822;2022-08-01T14:31:42;3.83;;;1.75;;
62543;SDS011;48597;49.030;1.822;2022-08-01T14:34:07;2.80;;;1.80;;
62543;SDS011;48597;49.030;1.822;2022-08-01T14:36:33;2.65;;;1.80;;
62543;SDS011;48597;49.030;1.822;2022-08-01T14:38:58;2.25;;;1.60;;
62543;SDS011;48597;49.030;1.822;2022-08-01T14:41:24;2.97;;;2.05;;
62543;SDS011;48597;49.030;1.822;2022-08-01T14:43:49;5.22;;;1.80;;
62543;SDS011;48597;49.030;1.822;2022-08-01T14:46:14;3.22;;;1.98;;
62543;SDS011;48597;49.030;1.822;2022-08-01T14:48:40;2.17;;;1.60;;
62543;SDS011;48597;49.030;1.822;2022-08-01T14:51:05;2.38;;;1.70;;
62543;SDS011;48597;49.030;1.822;2022-08-01T14:53:32;1.88;;;1.50;;
62543;SDS011;48597;49.030;1.822;2022-08-01T14:55:58;3.47;;;1.80;;
62543;SDS011;48597;49.030;1.822;2022-08-01T14:58:24;2.05;;;1.80;;
62543;SDS011;48597;49.030;1.822;2022-08-01T15:00:49;2.10;;;1.70;;
62543;SDS011;48597;49.030;1.822;2022-08-01T15:03:19;2.08;;;1.67;;
62543;SDS011;48597;49.030;1.822;2022-08-01T15:05:44;2.53;;;1.77;;
62543;SDS011;48597;49.030;1.822;2022-08-01T15:08:09;3.13;;;1.95;;
62543;SDS011;48597;49.030;1.822;2022-08-01T15:10:35;2.75;;;1.75;;
62543;SDS011;48597;49.030;1.822;2022-08-01T15:13:00;1.75;;;1.65;;
62543;SDS011;48597;49.030;1.822;2022-08-01T15:15:26;2.80;;;2.08;;
62543;SDS011;48597;49.030;1.822;2022-08-01T15:17:52;3.08;;;1.80;;
62543;SDS011;48597;49.030;1.822;2022-08-01T15:20:18;3.40;;;1.75;;
62543;SDS011;48597;49.030;1.822;2022-08-01T15:22:43;2.25;;;1.80;;
62543;SDS011;48597;49.030;1.822;2022-08-01T15:25:09;3.78;;;1.80;;
62543;SDS011;48597;49.030;1.822;2022-08-01T15:27:35;1.98;;;1.50;;
62543;SDS011;48597;49.030;1.822;2022-08-01T15:30:00;2.72;;;1.73;;
62543;SDS011;48597;49.030;1.822;2022-08-01T15:32:27;2.88;;;1.80;;
62543;SDS011;48597;49.030;1.822;2022-08-01T15:34:52;4.30;;;1.77;;
62543;SDS011;48597;49.030;1.822;2022-08-01T15:37:18;3.42;;;1.65;;